sensor_id;sensor_type;location;lat;lon;timestamp;pressure;altitude;pressure_sealevel;temperature;humidity
42001;BME280;27689;48.390;10.856;2023-03-13T00:00:23;95753.97;;;7.28;100.00
42001;BME280;27689;48.390;10.856;2023-03-13T00:03:07;95749.19;;;7.24;100.00
42001;BME280;27689;48.390;10.856;2023-03-13T00:05:58;95751.69;;;7.25;100.00
42001;BME280;27689;48.390;10.856;2023-03-13T00:08:42;95744.53;;;7.27;100.00
42001;BME280;27689;48.390;10.856;2023-03-13T00:11:27;95737.81;;;7.25;100.00
42001;BME280;27689;48.390;10.856;2023-03-13T00:14:11;95728.22;;;7.25;100.00
42001;BME280;27689;48.390;10.856;2023-03-13T00:16:55;95735.47;;;7.22;100.00
42001;BME280;27689;48.390;10.856;2023-03-13T00:19:40;95739.31;;;7.18;100.00
42001;BME280;27689;48.390;10.856;2023-03-13T00:22:24;95734.66;;;7.12;99.64
42001;BME280;27689;48.390;10.856;2023-03-13T00:25:08;95736.53;;;7.00;99.07
42001;BME280;27689;48.390;10.856;2023-03-13T00:27:52;95729.53;;;6.91;100.00
42001;BME280;27689;48.390;10.856;2023-03-13T00:30:36;95737.75;;;6.86;100.00
42001;BME280;27689;48.390;10.856;2023-03-13T00:33:19;95730.72;;;6.77;100.00
42001;BME280;27689;48.390;10.856;2023-03-13T00:36:06;95727.56;;;6.73;100.00
42001;BME280;27689;48.390;10.856;2023-03-13T00:38:51;95725.22;;;6.70;100.00
42001;BME280;27689;48.390;10.856;2023-03-13T00:41:36;95723.16;;;6.64;100.00
42001;BME280;27689;48.390;10.856;2023-03-13T00:44:20;95717.28;;;6.62;100.00
42001;BME280;27689;48.390;10.856;2023-03-13T00:47:04;95707.56;;;6.64;100.00
42001;BME280;27689;48.390;10.856;2023-03-13T00:49:50;95704.69;;;6.67;100.00
42001;BME280;27689;48.390;10.856;2023-03-13T00:52:34;95709.59;;;6.70;100.00
42001;BME280;27689;48.390;10.856;2023-03-13T00:55:18;95704.69;;;6.77;100.00
42001;BME280;27689;48.390;10.856;2023-03-13T00:58:02;95703.06;;;6.76;100.00
42001;BME280;27689;48.390;10.856;2023-03-13T01:00:46;95701.03;;;6.89;100.00
42001;BME280;27689;48.390;10.856;2023-03-13T01:03:30;95697.59;;;6.89;100.00
42001;BME280;27689;48.390;10.856;2023-03-13T01:06:16;95704.31;;;6.91;100.00
42001;BME280;27689;48.390;10.856;2023-03-13T01:09:03;95695.81;;;6.89;100.00
42001;BME280;27689;48.390;10.856;2023-03-13T01:11:47;95694.16;;;6.88;100.00
42001;BME280;27689;48.390;10.856;2023-03-13T01:14:31;95685.09;;;6.83;100.00
42001;BME280;27689;48.390;10.856;2023-03-13T01:17:15;95684.16;;;6.84;100.00
42001;BME280;27689;48.390;10.856;2023-03-13T01:19:59;95683.88;;;6.87;100.00
42001;BME280;27689;48.390;10.856;2023-03-13T01:22:43;95687.19;;;6.89;100.00
42001;BME280;27689;48.390;10.856;2023-03-13T01:25:27;95679.53;;;6.97;100.00
42001;BME280;27689;48.390;10.856;2023-03-13T01:28:11;95673.78;;;6.93;100.00
42001;BME280;27689;48.390;10.856;2023-03-13T01:30:55;95662.25;;;6.96;100.00
42001;BME280;27689;48.390;10.856;2023-03-13T01:33:40;95665.53;;;6.88;100.00
42001;BME280;27689;48.390;10.856;2023-03-13T01:36:25;95659.75;;;6.85;100.00
42001;BME280;27689;48.390;10.856;2023-03-13T01:39:09;95647.44;;;6.77;100.00
42001;BME280;27689;48.390;10.856;2023-03-13T01:41:52;95651.41;;;6.81;100.00
42001;BME280;27689;48.390;10.856;2023-03-13T01:44:54;95645.25;;;6.82;100.00
42001;BME280;27689;48.390;10.856;2023-03-13T01:47:38;95653.72;;;6.84;100.00
42001;BME280;27689;48.390;10.856;2023-03-13T01:50:22;95649.78;;;6.90;100.00
42001;BME280;27689;48.390;10.856;2023-03-13T01:53:06;95651.97;;;6.94;100.00
42001;BME280;27689;48.390;10.856;2023-03-13T01:55:51;95660.31;;;6.98;100.00
42001;BME280;27689;48.390;10.856;2023-03-13T01:58:37;95651.28;;;7.02;100.00
42001;BME280;27689;48.390;10.856;2023-03-13T02:01:22;95651.84;;;7.05;100.00
42001;BME280;27689;48.390;10.856;2023-03-13T02:04:06;95655.41;;;7.14;100.00
42001;BME280;27689;48.390;10.856;2023-03-13T02:06:53;95648.28;;;7.16;100.00
42001;BME280;27689;48.390;10.856;2023-03-13T02:09:41;95650.88;;;7.16;100.00
42001;BME280;27689;48.390;10.856;2023-03-13T02:12:34;95655.13;;;7.17;99.93
42001;BME280;27689;48.390;10.856;2023-03-13T02:15:20;95647.59;;;7.14;100.00
42001;BME280;27689;48.390;10.856;2023-03-13T02:18:06;95648.00;;;7.10;100.00
42001;BME280;27689;48.390;10.856;2023-03-13T02:20:52;95635.81;;;7.10;100.00
42001;BME280;27689;48.390;10.856;2023-03-13T02:24:18;95636.22;;;7.15;99.69
42001;BME280;27689;48.390;10.856;2023-03-13T02:27:04;95636.50;;;7.12;99.76
42001;BME280;27689;48.390;10.856;2023-03-13T02:29:48;95639.22;;;7.20;99.27
42001;BME280;27689;48.390;10.856;2023-03-13T02:32:33;95635.53;;;7.23;99.25
42001;BME280;27689;48.390;10.856;2023-03-13T02:35:20;95639.38;;;7.19;99.10
42001;BME280;27689;48.390;10.856;2023-03-13T02:38:07;95646.09;;;7.21;99.15
42001;BME280;27689;48.390;10.856;2023-03-13T02:40:54;95640.31;;;7.18;99.39
42001;BME280;27689;48.390;10.856;2023-03-13T02:43:39;95642.78;;;7.19;99.42
42001;BME280;27689;48.390;10.856;2023-03-13T02:46:23;95649.38;;;7.23;99.10
42001;BME280;27689;48.390;10.856;2023-03-13T02:49:23;95643.91;;;7.26;98.49
42001;BME280;27689;48.390;10.856;2023-03-13T02:52:25;95639.50;;;7.27;98.91
42001;BME280;27689;48.390;10.856;2023-03-13T02:55:22;95638.38;;;7.29;98.30
42001;BME280;27689;48.390;10.856;2023-03-13T02:58:07;95632.50;;;7.27;98.55
42001;BME280;27689;48.390;10.856;2023-03-13T03:00:51;95642.25;;;7.35;97.88
42001;BME280;27689;48.390;10.856;2023-03-13T03:03:35;95636.19;;;7.34;97.84
42001;BME280;27689;48.390;10.856;2023-03-13T03:06:19;95640.44;;;7.35;97.83
42001;BME280;27689;48.390;10.856;2023-03-13T03:09:03;95633.19;;;7.39;97.60
42001;BME280;27689;48.390;10.856;2023-03-13T03:11:48;95632.09;;;7.41;97.28
42001;BME280;27689;48.390;10.856;2023-03-13T03:14:32;95611.38;;;7.40;96.66
42001;BME280;27689;48.390;10.856;2023-03-13T03:17:16;95622.31;;;7.43;97.12
42001;BME280;27689;48.390;10.856;2023-03-13T03:20:00;95617.56;;;7.39;97.28
42001;BME280;27689;48.390;10.856;2023-03-13T03:22:44;95608.63;;;7.41;96.90
42001;BME280;27689;48.390;10.856;2023-03-13T03:25:28;95617.56;;;7.39;97.20
42001;BME280;27689;48.390;10.856;2023-03-13T03:28:12;95605.22;;;7.41;96.94
42001;BME280;27689;48.390;10.856;2023-03-13T03:30:56;95600.13;;;7.39;97.03
42001;BME280;27689;48.390;10.856;2023-03-13T03:33:41;95590.66;;;7.48;96.39
42001;BME280;27689;48.390;10.856;2023-03-13T03:36:25;95587.91;;;7.50;96.32
42001;BME280;27689;48.390;10.856;2023-03-13T03:39:09;95574.03;;;7.49;96.05
42001;BME280;27689;48.390;10.856;2023-03-13T03:41:53;95577.88;;;7.55;95.65
42001;BME280;27689;48.390;10.856;2023-03-13T03:44:37;95576.09;;;7.55;95.52
42001;BME280;27689;48.390;10.856;2023-03-13T03:47:21;95566.78;;;7.53;95.54
42001;BME280;27689;48.390;10.856;2023-03-13T03:50:05;95564.53;;;7.58;94.81
42001;BME280;27689;48.390;10.856;2023-03-13T03:52:50;95567.59;;;7.53;95.00
42001;BME280;27689;48.390;10.856;2023-03-13T03:55:34;95563.72;;;7.67;94.09
42001;BME280;27689;48.390;10.856;2023-03-13T03:58:18;95559.75;;;7.63;94.27
42001;BME280;27689;48.390;10.856;2023-03-13T04:01:03;95558.22;;;7.70;93.58
42001;BME280;27689;48.390;10.856;2023-03-13T04:03:47;95554.66;;;7.71;93.64
42001;BME280;27689;48.390;10.856;2023-03-13T04:06:31;95545.84;;;7.72;93.58
42001;BME280;27689;48.390;10.856;2023-03-13T04:09:15;95548.84;;;7.77;93.31
42001;BME280;27689;48.390;10.856;2023-03-13T04:11:59;95541.28;;;7.84;92.88
42001;BME280;27689;48.390;10.856;2023-03-13T04:14:43;95541.16;;;7.85;92.16
42001;BME280;27689;48.390;10.856;2023-03-13T04:17:27;95538.38;;;7.87;92.32
42001;BME280;27689;48.390;10.856;2023-03-13T04:20:11;95531.22;;;7.89;91.92
42001;BME280;27689;48.390;10.856;2023-03-13T04:22:57;95527.09;;;7.96;91.21
42001;BME280;27689;48.390;10.856;2023-03-13T04:25:41;95521.44;;;8.00;90.73
42001;BME280;27689;48.390;10.856;2023-03-13T04:28:25;95514.56;;;7.99;91.08
42001;BME280;27689;48.390;10.856;2023-03-13T04:31:09;95517.56;;;8.04;90.31
42001;BME280;27689;48.390;10.856;2023-03-13T04:33:52;95516.16;;;8.10;90.12
42001;BME280;27689;48.390;10.856;2023-03-13T04:36:36;95508.53;;;8.17;89.57
42001;BME280;27689;48.390;10.856;2023-03-13T04:39:20;95508.41;;;8.18;89.33
42001;BME280;27689;48.390;10.856;2023-03-13T04:42:09;95514.84;;;8.24;88.82
42001;BME280;27689;48.390;10.856;2023-03-13T04:44:54;95512.91;;;8.26;88.78
42001;BME280;27689;48.390;10.856;2023-03-13T04:47:38;95507.94;;;8.32;88.65
42001;BME280;27689;48.390;10.856;2023-03-13T04:50:22;95507.09;;;8.32;88.69
42001;BME280;27689;48.390;10.856;2023-03-13T04:53:06;95496.38;;;8.35;88.56
42001;BME280;27689;48.390;10.856;2023-03-13T04:55:50;95519.44;;;8.39;88.95
42001;BME280;27689;48.390;10.856;2023-03-13T04:58:34;95532.91;;;8.35;90.12
42001;BME280;27689;48.390;10.856;2023-03-13T05:01:18;95529.72;;;8.41;89.46
42001;BME280;27689;48.390;10.856;2023-03-13T05:04:02;95516.53;;;8.42;89.62
42001;BME280;27689;48.390;10.856;2023-03-13T05:06:47;95501.03;;;8.41;90.10
42001;BME280;27689;48.390;10.856;2023-03-13T05:09:31;95486.25;;;8.49;89.50
42001;BME280;27689;48.390;10.856;2023-03-13T05:12:15;95487.88;;;8.51;89.91
42001;BME280;27689;48.390;10.856;2023-03-13T05:14:59;95468.94;;;8.48;90.06
42001;BME280;27689;48.390;10.856;2023-03-13T05:17:43;95472.38;;;8.49;90.39
42001;BME280;27689;48.390;10.856;2023-03-13T05:20:27;95461.25;;;8.47;90.54
42001;BME280;27689;48.390;10.856;2023-03-13T05:23:11;95463.03;;;8.46;91.01
42001;BME280;27689;48.390;10.856;2023-03-13T05:25:55;95447.38;;;8.46;91.00
42001;BME280;27689;48.390;10.856;2023-03-13T05:28:39;95448.72;;;8.51;90.41
42001;BME280;27689;48.390;10.856;2023-03-13T05:31:23;95441.81;;;8.59;89.15
42001;BME280;27689;48.390;10.856;2023-03-13T05:34:06;95451.28;;;8.60;89.26
42001;BME280;27689;48.390;10.856;2023-03-13T05:36:50;95432.00;;;8.61;89.81
42001;BME280;27689;48.390;10.856;2023-03-13T05:39:34;95432.75;;;8.71;88.26
42001;BME280;27689;48.390;10.856;2023-03-13T05:42:18;95429.84;;;8.74;88.70
42001;BME280;27689;48.390;10.856;2023-03-13T05:45:02;95423.31;;;8.78;88.41
42001;BME280;27689;48.390;10.856;2023-03-13T05:47:47;95430.56;;;8.84;87.35
42001;BME280;27689;48.390;10.856;2023-03-13T05:50:31;95433.53;;;8.90;86.38
42001;BME280;27689;48.390;10.856;2023-03-13T05:53:15;95425.63;;;9.07;84.03
42001;BME280;27689;48.390;10.856;2023-03-13T05:55:59;95427.94;;;9.10;84.23
42001;BME280;27689;48.390;10.856;2023-03-13T05:58:43;95427.50;;;9.15;83.17
42001;BME280;27689;48.390;10.856;2023-03-13T06:01:27;95436.16;;;9.15;83.58
42001;BME280;27689;48.390;10.856;2023-03-13T06:04:11;95427.88;;;9.28;81.20
42001;BME280;27689;48.390;10.856;2023-03-13T06:06:54;95428.28;;;9.41;79.76
42001;BME280;27689;48.390;10.856;2023-03-13T06:09:38;95434.53;;;9.48;79.63
42001;BME280;27689;48.390;10.856;2023-03-13T06:12:23;95438.72;;;9.41;79.84
42001;BME280;27689;48.390;10.856;2023-03-13T06:15:08;95439.63;;;9.58;78.31
42001;BME280;27689;48.390;10.856;2023-03-13T06:17:55;95424.59;;;9.60;78.30
42001;BME280;27689;48.390;10.856;2023-03-13T06:20:40;95438.34;;;9.62;78.23
42001;BME280;27689;48.390;10.856;2023-03-13T06:23:24;95435.72;;;9.62;79.28
42001;BME280;27689;48.390;10.856;2023-03-13T06:26:08;95422.81;;;9.69;77.74
42001;BME280;27689;48.390;10.856;2023-03-13T06:28:51;95436.91;;;9.76;77.47
42001;BME280;27689;48.390;10.856;2023-03-13T06:31:36;95429.69;;;9.70;78.73
42001;BME280;27689;48.390;10.856;2023-03-13T06:34:20;95422.66;;;9.70;78.27
42001;BME280;27689;48.390;10.856;2023-03-13T06:37:04;95418.75;;;9.74;78.35
42001;BME280;27689;48.390;10.856;2023-03-13T06:39:47;95420.56;;;9.74;78.70
42001;BME280;27689;48.390;10.856;2023-03-13T06:42:31;95420.19;;;9.69;78.98
42001;BME280;27689;48.390;10.856;2023-03-13T06:45:16;95422.34;;;9.73;78.94
42001;BME280;27689;48.390;10.856;2023-03-13T06:48:00;95425.31;;;9.78;79.23
42001;BME280;27689;48.390;10.856;2023-03-13T06:50:44;95419.59;;;9.75;80.16
42001;BME280;27689;48.390;10.856;2023-03-13T06:53:27;95416.97;;;9.75;80.10
42001;BME280;27689;48.390;10.856;2023-03-13T06:56:12;95419.44;;;9.84;79.09
42001;BME280;27689;48.390;10.856;2023-03-13T06:58:56;95414.06;;;9.86;79.76
42001;BME280;27689;48.390;10.856;2023-03-13T07:01:40;95413.22;;;9.85;80.05
42001;BME280;27689;48.390;10.856;2023-03-13T07:04:24;95414.56;;;9.89;79.61
42001;BME280;27689;48.390;10.856;2023-03-13T07:07:08;95407.84;;;9.95;79.97
42001;BME280;27689;48.390;10.856;2023-03-13T07:09:52;95417.84;;;9.92;80.95
42001;BME280;27689;48.390;10.856;2023-03-13T07:12:36;95412.97;;;10.05;79.48
42001;BME280;27689;48.390;10.856;2023-03-13T07:15:20;95416.41;;;10.05;79.61
42001;BME280;27689;48.390;10.856;2023-03-13T07:18:04;95405.63;;;10.08;79.83
42001;BME280;27689;48.390;10.856;2023-03-13T07:20:55;95413.50;;;10.24;80.43
42001;BME280;27689;48.390;10.856;2023-03-13T07:23:40;95400.09;;;10.28;79.64
42001;BME280;27689;48.390;10.856;2023-03-13T07:26:24;95395.69;;;10.36;78.96
42001;BME280;27689;48.390;10.856;2023-03-13T07:29:08;95405.03;;;10.39;79.72
42001;BME280;27689;48.390;10.856;2023-03-13T07:31:52;95392.72;;;10.39;79.77
42001;BME280;27689;48.390;10.856;2023-03-13T07:34:36;95395.19;;;10.49;80.27
42001;BME280;27689;48.390;10.856;2023-03-13T07:37:20;95393.53;;;10.56;79.64
42001;BME280;27689;48.390;10.856;2023-03-13T07:40:04;95392.25;;;10.60;79.93
42001;BME280;27689;48.390;10.856;2023-03-13T07:42:48;95396.34;;;10.63;81.99
42001;BME280;27689;48.390;10.856;2023-03-13T07:45:32;95391.59;;;10.58;83.97
42001;BME280;27689;48.390;10.856;2023-03-13T07:48:16;95392.88;;;10.54;85.68
42001;BME280;27689;48.390;10.856;2023-03-13T07:51:00;95393.25;;;10.51;86.44
42001;BME280;27689;48.390;10.856;2023-03-13T07:53:44;95384.06;;;10.47;87.59
42001;BME280;27689;48.390;10.856;2023-03-13T07:56:30;95392.59;;;10.49;87.53
42001;BME280;27689;48.390;10.856;2023-03-13T07:59:14;95389.28;;;10.55;87.67
42001;BME280;27689;48.390;10.856;2023-03-13T08:01:58;95397.97;;;10.55;86.87
42001;BME280;27689;48.390;10.856;2023-03-13T08:04:42;95406.78;;;10.71;86.35
42001;BME280;27689;48.390;10.856;2023-03-13T08:07:26;95422.50;;;10.71;84.83
42001;BME280;27689;48.390;10.856;2023-03-13T08:10:10;95412.03;;;10.87;83.79
42001;BME280;27689;48.390;10.856;2023-03-13T08:12:54;95410.22;;;10.87;83.50
42001;BME280;27689;48.390;10.856;2023-03-13T08:15:38;95408.09;;;10.91;84.53
42001;BME280;27689;48.390;10.856;2023-03-13T08:18:22;95421.16;;;11.15;83.49
42001;BME280;27689;48.390;10.856;2023-03-13T08:21:08;95412.75;;;11.36;83.42
42001;BME280;27689;48.390;10.856;2023-03-13T08:24:00;95402.72;;;11.48;82.33
42001;BME280;27689;48.390;10.856;2023-03-13T08:27:09;95404.50;;;11.55;80.12
42001;BME280;27689;48.390;10.856;2023-03-13T08:29:53;95399.91;;;11.57;80.97
42001;BME280;27689;48.390;10.856;2023-03-13T08:32:37;95390.34;;;11.64;79.36
42001;BME280;27689;48.390;10.856;2023-03-13T08:35:21;95392.63;;;11.68;80.37
42001;BME280;27689;48.390;10.856;2023-03-13T08:38:05;95396.69;;;11.78;79.23
42001;BME280;27689;48.390;10.856;2023-03-13T08:40:55;95396.53;;;11.80;79.93
42001;BME280;27689;48.390;10.856;2023-03-13T08:43:39;95387.16;;;11.85;80.52
42001;BME280;27689;48.390;10.856;2023-03-13T08:46:23;95379.38;;;12.00;78.98
42001;BME280;27689;48.390;10.856;2023-03-13T08:49:08;95385.78;;;12.20;77.59
42001;BME280;27689;48.390;10.856;2023-03-13T08:51:52;95376.97;;;12.36;76.26
42001;BME280;27689;48.390;10.856;2023-03-13T08:54:36;95377.63;;;12.61;76.69
42001;BME280;27689;48.390;10.856;2023-03-13T08:57:20;95375.38;;;12.73;76.00
42001;BME280;27689;48.390;10.856;2023-03-13T09:00:04;95374.75;;;12.85;74.54
42001;BME280;27689;48.390;10.856;2023-03-13T09:02:49;95356.09;;;12.95;73.38
42001;BME280;27689;48.390;10.856;2023-03-13T09:05:36;95362.53;;;13.07;72.51
42001;BME280;27689;48.390;10.856;2023-03-13T09:08:20;95349.66;;;13.12;71.89
42001;BME280;27689;48.390;10.856;2023-03-13T09:11:07;95348.25;;;13.39;72.61
42001;BME280;27689;48.390;10.856;2023-03-13T09:13:54;95344.31;;;13.64;70.03
42001;BME280;27689;48.390;10.856;2023-03-13T09:16:38;95348.47;;;13.73;69.47
42001;BME280;27689;48.390;10.856;2023-03-13T09:19:22;95340.22;;;13.76;69.04
42001;BME280;27689;48.390;10.856;2023-03-13T09:22:09;95329.88;;;13.75;69.44
42001;BME280;27689;48.390;10.856;2023-03-13T09:24:53;95332.31;;;13.76;68.92
42001;BME280;27689;48.390;10.856;2023-03-13T09:27:37;95326.09;;;13.84;69.59
42001;BME280;27689;48.390;10.856;2023-03-13T09:30:21;95337.44;;;13.85;68.66
42001;BME280;27689;48.390;10.856;2023-03-13T09:33:06;95330.19;;;13.87;69.14
42001;BME280;27689;48.390;10.856;2023-03-13T09:35:50;95327.19;;;13.90;69.17
42001;BME280;27689;48.390;10.856;2023-03-13T09:38:35;95327.19;;;13.90;67.99
42001;BME280;27689;48.390;10.856;2023-03-13T09:41:21;95314.38;;;13.87;68.08
42001;BME280;27689;48.390;10.856;2023-03-13T09:52:35;95304.31;;;14.33;67.08
42001;BME280;27689;48.390;10.856;2023-03-13T09:55:30;95288.91;;;14.58;64.26
42001;BME280;27689;48.390;10.856;2023-03-13T09:58:27;95304.41;;;14.67;63.78
42001;BME280;27689;48.390;10.856;2023-03-13T10:01:16;95310.25;;;14.63;63.12
42001;BME280;27689;48.390;10.856;2023-03-13T10:06:59;95302.47;;;15.17;61.34
42001;BME280;27689;48.390;10.856;2023-03-13T10:09:43;95294.00;;;15.22;61.07
42001;BME280;27689;48.390;10.856;2023-03-13T10:12:30;95299.13;;;15.36;61.45
42001;BME280;27689;48.390;10.856;2023-03-13T10:15:35;95294.09;;;15.48;60.51
42001;BME280;27689;48.390;10.856;2023-03-13T10:18:24;95274.34;;;15.72;61.26
42001;BME280;27689;48.390;10.856;2023-03-13T10:21:16;95275.94;;;15.66;60.02
42001;BME280;27689;48.390;10.856;2023-03-13T10:24:13;95272.91;;;15.69;60.06
42001;BME280;27689;48.390;10.856;2023-03-13T10:26:58;95270.69;;;15.79;59.22
42001;BME280;27689;48.390;10.856;2023-03-13T10:29:42;95271.88;;;15.77;58.09
42001;BME280;27689;48.390;10.856;2023-03-13T10:32:26;95267.25;;;15.85;57.51
42001;BME280;27689;48.390;10.856;2023-03-13T10:35:20;95276.78;;;15.80;57.50
42001;BME280;27689;48.390;10.856;2023-03-13T10:38:17;95265.81;;;15.90;58.97
42001;BME280;27689;48.390;10.856;2023-03-13T10:41:33;95275.84;;;16.14;58.19
42001;BME280;27689;48.390;10.856;2023-03-13T10:44:19;95273.81;;;16.36;57.76
42001;BME280;27689;48.390;10.856;2023-03-13T10:47:05;95280.72;;;16.50;56.88
42001;BME280;27689;48.390;10.856;2023-03-13T10:49:51;95276.06;;;16.65;56.11
42001;BME280;27689;48.390;10.856;2023-03-13T10:55:24;95256.50;;;16.86;55.92
42001;BME280;27689;48.390;10.856;2023-03-13T10:58:17;95268.69;;;16.93;56.04
42001;BME280;27689;48.390;10.856;2023-03-13T11:04:18;95256.72;;;16.91;56.81
42001;BME280;27689;48.390;10.856;2023-03-13T11:07:14;95267.72;;;16.75;56.29
42001;BME280;27689;48.390;10.856;2023-03-13T11:12:44;95244.72;;;16.88;56.71
42001;BME280;27689;48.390;10.856;2023-03-13T11:15:42;95254.47;;;16.81;57.06
42001;BME280;27689;48.390;10.856;2023-03-13T11:21:20;95234.09;;;17.02;56.09
42001;BME280;27689;48.390;10.856;2023-03-13T11:24:14;95236.66;;;17.21;56.58
42001;BME280;27689;48.390;10.856;2023-03-13T11:27:20;95247.78;;;17.43;56.14
42001;BME280;27689;48.390;10.856;2023-03-13T11:30:15;95250.00;;;17.46;56.69
42001;BME280;27689;48.390;10.856;2023-03-13T11:33:04;95239.97;;;17.61;55.27
42001;BME280;27689;48.390;10.856;2023-03-13T11:36:02;95232.44;;;17.65;55.22
42001;BME280;27689;48.390;10.856;2023-03-13T11:42:25;95240.16;;;17.67;55.58
42001;BME280;27689;48.390;10.856;2023-03-13T11:58:58;95211.00;;;17.67;55.59
42001;BME280;27689;48.390;10.856;2023-03-13T12:01:53;95194.72;;;17.63;56.04
42001;BME280;27689;48.390;10.856;2023-03-13T12:04:43;95202.25;;;17.66;56.49
42001;BME280;27689;48.390;10.856;2023-03-13T12:07:33;95194.13;;;17.61;56.24
42001;BME280;27689;48.390;10.856;2023-03-13T12:10:38;95194.47;;;17.78;55.40
42001;BME280;27689;48.390;10.856;2023-03-13T12:13:34;95183.56;;;17.92;55.53
42001;BME280;27689;48.390;10.856;2023-03-13T12:16:25;95179.50;;;18.15;55.23
42001;BME280;27689;48.390;10.856;2023-03-13T12:19:20;95175.97;;;18.46;55.53
42001;BME280;27689;48.390;10.856;2023-03-13T12:22:30;95181.88;;;18.48;54.07
42001;BME280;27689;48.390;10.856;2023-03-13T12:25:26;95164.97;;;18.42;53.29
42001;BME280;27689;48.390;10.856;2023-03-13T12:28:41;95162.63;;;18.34;54.53
42001;BME280;27689;48.390;10.856;2023-03-13T12:31:35;95163.16;;;18.18;55.21
42001;BME280;27689;48.390;10.856;2023-03-13T12:34:26;95146.97;;;18.26;54.86
42001;BME280;27689;48.390;10.856;2023-03-13T12:40:25;95126.94;;;18.73;54.15
42001;BME280;27689;48.390;10.856;2023-03-13T12:43:23;95119.88;;;19.15;53.22
42001;BME280;27689;48.390;10.856;2023-03-13T12:49:25;95114.91;;;19.07;54.00
42001;BME280;27689;48.390;10.856;2023-03-13T12:58:54;95095.38;;;19.31;51.70
42001;BME280;27689;48.390;10.856;2023-03-13T13:02:31;95078.94;;;19.53;51.14
42001;BME280;27689;48.390;10.856;2023-03-13T13:04:59;95074.69;;;19.52;50.43
42001;BME280;27689;48.390;10.856;2023-03-13T13:07:52;95069.94;;;19.54;50.23
42001;BME280;27689;48.390;10.856;2023-03-13T13:10:36;95054.63;;;19.37;51.13
42001;BME280;27689;48.390;10.856;2023-03-13T13:13:28;95058.44;;;19.71;49.75
42001;BME280;27689;48.390;10.856;2023-03-13T13:16:18;95046.28;;;19.64;49.41
42001;BME280;27689;48.390;10.856;2023-03-13T13:25:28;95019.16;;;19.85;49.40
42001;BME280;27689;48.390;10.856;2023-03-13T13:43:02;94985.16;;;19.76;49.43
42001;BME280;27689;48.390;10.856;2023-03-13T13:46:02;94976.06;;;19.71;49.04
42001;BME280;27689;48.390;10.856;2023-03-13T13:49:15;94962.94;;;19.35;49.30
42001;BME280;27689;48.390;10.856;2023-03-13T13:57:42;94943.63;;;19.16;50.44
42001;BME280;27689;48.390;10.856;2023-03-13T14:00:35;94947.34;;;19.38;50.50
42001;BME280;27689;48.390;10.856;2023-03-13T14:03:23;94943.53;;;19.34;50.43
42001;BME280;27689;48.390;10.856;2023-03-13T14:06:31;94932.31;;;19.32;49.71
42001;BME280;27689;48.390;10.856;2023-03-13T14:12:35;94907.38;;;19.45;49.90
42001;BME280;27689;48.390;10.856;2023-03-13T14:15:23;94892.25;;;19.46;49.14
42001;BME280;27689;48.390;10.856;2023-03-13T14:18:13;94897.44;;;19.17;49.99
42001;BME280;27689;48.390;10.856;2023-03-13T14:21:01;94897.00;;;19.20;49.27
42001;BME280;27689;48.390;10.856;2023-03-13T14:23:45;94883.84;;;19.25;49.68
42001;BME280;27689;48.390;10.856;2023-03-13T14:26:29;94875.88;;;19.37;49.30
42001;BME280;27689;48.390;10.856;2023-03-13T14:29:17;94868.50;;;19.27;49.93
42001;BME280;27689;48.390;10.856;2023-03-13T14:32:03;94853.81;;;19.36;49.08
42001;BME280;27689;48.390;10.856;2023-03-13T14:34:48;94850.94;;;19.38;49.18
42001;BME280;27689;48.390;10.856;2023-03-13T14:37:40;94849.44;;;19.42;49.18
42001;BME280;27689;48.390;10.856;2023-03-13T14:40:26;94851.16;;;19.36;48.97
42001;BME280;27689;48.390;10.856;2023-03-13T14:43:31;94837.16;;;19.29;48.92
42001;BME280;27689;48.390;10.856;2023-03-13T14:46:36;94840.91;;;19.28;49.00
42001;BME280;27689;48.390;10.856;2023-03-13T14:49:25;94829.22;;;19.29;49.32
42001;BME280;27689;48.390;10.856;2023-03-13T14:52:20;94822.06;;;19.18;49.36
42001;BME280;27689;48.390;10.856;2023-03-13T14:55:25;94817.94;;;19.11;50.26
42001;BME280;27689;48.390;10.856;2023-03-13T15:01:21;94800.03;;;19.06;50.43
42001;BME280;27689;48.390;10.856;2023-03-13T15:04:05;94790.91;;;19.02;50.02
42001;BME280;27689;48.390;10.856;2023-03-13T15:07:00;94794.25;;;19.09;50.78
42001;BME280;27689;48.390;10.856;2023-03-13T15:09:45;94791.38;;;18.99;50.53
42001;BME280;27689;48.390;10.856;2023-03-13T15:12:30;94795.97;;;19.03;50.37
42001;BME280;27689;48.390;10.856;2023-03-13T15:15:23;94784.09;;;19.06;50.80
42001;BME280;27689;48.390;10.856;2023-03-13T15:18:23;94781.91;;;19.03;50.99
42001;BME280;27689;48.390;10.856;2023-03-13T15:24:11;94757.44;;;19.01;51.53
42001;BME280;27689;48.390;10.856;2023-03-13T15:26:55;94755.00;;;18.99;51.77
42001;BME280;27689;48.390;10.856;2023-03-13T15:29:39;94740.84;;;18.94;51.68
42001;BME280;27689;48.390;10.856;2023-03-13T15:32:32;94743.38;;;18.89;51.72
42001;BME280;27689;48.390;10.856;2023-03-13T15:35:29;94729.88;;;18.90;51.75
42001;BME280;27689;48.390;10.856;2023-03-13T15:38:15;94728.84;;;18.80;51.79
42001;BME280;27689;48.390;10.856;2023-03-13T15:41:00;94721.47;;;18.82;52.59
42001;BME280;27689;48.390;10.856;2023-03-13T15:43:44;94716.63;;;18.79;51.90
42001;BME280;27689;48.390;10.856;2023-03-13T15:46:28;94707.28;;;18.76;52.11
42001;BME280;27689;48.390;10.856;2023-03-13T15:49:12;94707.03;;;18.78;52.30
42001;BME280;27689;48.390;10.856;2023-03-13T15:51:56;94690.75;;;18.86;51.43
42001;BME280;27689;48.390;10.856;2023-03-13T15:54:40;94683.38;;;18.88;51.90
42001;BME280;27689;48.390;10.856;2023-03-13T15:57:25;94675.75;;;18.91;50.34
42001;BME280;27689;48.390;10.856;2023-03-13T16:00:16;94675.63;;;18.86;51.03
42001;BME280;27689;48.390;10.856;2023-03-13T16:03:01;94664.13;;;18.81;50.54
42001;BME280;27689;48.390;10.856;2023-03-13T16:05:46;94665.63;;;18.77;50.90